Time;durP1;ratioP1;P1;durP2;ratioP2;P2;SDS_P1;SDS_P2;PMS_P1;PMS_P2;Temp;Humidity;BMP_temperature;BMP_pressure;BME280_temperature;BME280_humidity;BME280_pressure;Samples;Min_cycle;Max_cycle;Signal;HPM_P1;HPM_P2
2023/11/20 00:00:12;;;;;;;9.75;1.08;;;;;;;;;;6238672;28;20049;-77
2023/11/20 00:03:14;;;;;;;5.78;0.80;;;;;;;;;;6239189;28;20047;-77
2023/11/20 00:06:16;;;;;;;2.90;0.77;;;;;;;;;;6253305;28;20037;-77
2023/11/20 00:09:18;;;;;;;4.57;0.80;;;;;;;;;;6257139;28;20051;-77
2023/11/20 00:12:21;;;;;;;4.20;0.88;;;;;;;;;;6246409;28;20083;-75
2023/11/20 00:15:22;;;;;;;3.03;0.65;;;;;;;;;;6238071;28;20410;-76
2023/11/20 00:18:24;;;;;;;6.88;0.77;;;;;;;;;;6238357;28;20045;-77
2023/11/20 00:21:26;;;;;;;4.45;0.88;;;;;;;;;;6231833;28;20174;-75
2023/11/20 00:24:28;;;;;;;2.80;0.75;;;;;;;;;;6258411;28;20064;-77
2023/11/20 00:27:29;;;;;;;7.45;0.90;;;;;;;;;;6260221;28;20068;-77
2023/11/20 00:30:31;;;;;;;3.75;1.10;;;;;;;;;;6246708;28;20048;-77
2023/11/20 00:33:33;;;;;;;3.95;0.80;;;;;;;;;;6239628;28;20108;-77
2023/11/20 00:36:35;;;;;;;4.57;0.70;;;;;;;;;;6260053;28;20132;-77
2023/11/20 00:39:37;;;;;;;6.13;1.00;;;;;;;;;;6244972;28;20064;-77
2023/11/20 00:42:39;;;;;;;3.92;0.85;;;;;;;;;;6243974;28;20044;-75
2023/11/20 00:45:41;;;;;;;3.15;0.70;;;;;;;;;;6257134;28;20048;-78
2023/11/20 00:48:44;;;;;;;8.50;0.85;;;;;;;;;;6255111;28;20068;-78
2023/11/20 00:51:46;;;;;;;1.63;0.70;;;;;;;;;;6258215;28;20049;-78
2023/11/20 00:54:48;;;;;;;5.18;0.88;;;;;;;;;;6252969;28;20475;-78
2023/11/20 00:57:49;;;;;;;2.45;0.90;;;;;;;;;;6266577;28;20525;-77
2023/11/20 01:00:54;;;;;;;2.50;0.73;;;;;;;;;;6246643;28;20720;-78
2023/11/20 01:03:56;;;;;;;3.28;0.68;;;;;;;;;;6240055;28;20195;-77
2023/11/20 01:06:58;;;;;;;2.33;0.70;;;;;;;;;;6261817;28;20060;-77
2023/11/20 01:10:00;;;;;;;5.65;0.90;;;;;;;;;;6269680;28;20178;-78
2023/11/20 01:13:02;;;;;;;1.38;0.50;;;;;;;;;;6266275;28;20532;-77
2023/11/20 01:16:05;;;;;;;3.42;0.73;;;;;;;;;;6268304;28;20510;-78
2023/11/20 01:19:07;;;;;;;;;;;;;;;;;;6248043;28;20045;-78
2023/11/20 01:22:09;;;;;;;3.17;0.60;;;;;;;;;;6247637;28;19921;-78
2023/11/20 01:25:11;;;;;;;2.17;0.68;;;;;;;;;;6250962;28;20089;-78
2023/11/20 01:28:13;;;;;;;2.22;0.60;;;;;;;;;;6246066;28;20090;-78
2023/11/20 01:31:15;;;;;;;2.42;0.80;;;;;;;;;;6243844;28;20047;-78
2023/11/20 01:34:17;;;;;;;5.57;0.80;;;;;;;;;;6240238;28;20507;-78
2023/11/20 01:37:18;;;;;;;2.97;0.60;;;;;;;;;;6249752;28;20074;-78
2023/11/20 01:40:20;;;;;;;1.70;0.55;;;;;;;;;;6253864;28;20167;-78
2023/11/20 01:43:22;;;;;;;1.17;0.30;;;;;;;;;;6261706;28;20040;-78
2023/11/20 01:46:28;;;;;;;2.97;0.30;;;;;;;;;;6257294;28;20056;-77
2023/11/20 01:49:30;;;;;;;0.65;0.38;;;;;;;;;;6263612;28;20068;-78
2023/11/20 01:52:34;;;;;;;2.17;0.60;;;;;;;;;;6254585;28;20049;-77
2023/11/20 01:55:37;;;;;;;2.25;0.60;;;;;;;;;;6250824;28;20097;-78
2023/11/20 01:58:42;;;;;;;2.80;0.60;;;;;;;;;;6251231;28;20045;-77
2023/11/20 02:01:43;;;;;;;2.72;0.50;;;;;;;;;;6251303;28;20068;-77
2023/11/20 02:04:50;;;;;;;2.05;0.40;;;;;;;;;;6271891;28;20052;-75
2023/11/20 02:07:52;;;;;;;1.63;0.60;;;;;;;;;;6257440;28;20060;-76
2023/11/20 02:10:58;;;;;;;2.47;0.50;;;;;;;;;;6268810;28;20044;-76
2023/11/20 02:14:01;;;;;;;1.58;0.50;;;;;;;;;;6263851;28;20278;-77
2023/11/20 02:17:03;;;;;;;0.68;0.50;;;;;;;;;;6265028;28;20064;-76
2023/11/20 02:20:07;;;;;;;3.08;0.60;;;;;;;;;;6252144;28;20135;-77
2023/11/20 02:23:09;;;;;;;1.75;0.40;;;;;;;;;;6249329;28;20043;-77
2023/11/20 02:26:10;;;;;;;2.97;0.70;;;;;;;;;;6260953;28;20040;-77
2023/11/20 02:29:30;;;;;;;1.98;0.57;;;;;;;;;;6279190;28;20049;-76
2023/11/20 02:32:32;;;;;;;4.15;0.63;;;;;;;;;;6261735;28;20182;-78
2023/11/20 02:35:34;;;;;;;3.00;0.73;;;;;;;;;;6259011;28;20044;-77
2023/11/20 02:38:40;;;;;;;4.57;0.90;;;;;;;;;;6254362;28;20041;-76
2023/11/20 02:41:45;;;;;;;1.10;0.60;;;;;;;;;;6250089;28;20124;-76
2023/11/20 02:44:48;;;;;;;1.15;0.47;;;;;;;;;;6258457;28;20157;-77
2023/11/20 02:47:50;;;;;;;3.30;0.50;;;;;;;;;;6252142;28;20036;-77
2023/11/20 02:50:53;;;;;;;6.43;0.60;;;;;;;;;;6259495;28;20048;-77
2023/11/20 02:53:55;;;;;;;2.47;0.70;;;;;;;;;;6250094;28;20516;-76
2023/11/20 02:56:56;;;;;;;3.80;0.95;;;;;;;;;;6244555;28;20051;-76
2023/11/20 02:59:58;;;;;;;5.53;0.60;;;;;;;;;;6247777;28;20083;-77
2023/11/20 03:03:01;;;;;;;2.40;0.50;;;;;;;;;;6237763;28;20530;-77
2023/11/20 03:06:03;;;;;;;5.10;0.70;;;;;;;;;;6234305;28;20573;-77
2023/11/20 03:09:05;;;;;;;2.38;0.57;;;;;;;;;;6241783;28;20070;-76
2023/11/20 03:12:07;;;;;;;1.73;0.40;;;;;;;;;;6255834;28;20289;-77
2023/11/20 03:15:09;;;;;;;2.10;0.40;;;;;;;;;;6259546;28;20136;-76
2023/11/20 03:18:11;;;;;;;5.72;0.50;;;;;;;;;;6237295;28;20056;-77
2023/11/20 03:21:13;;;;;;;2.25;0.40;;;;;;;;;;6254962;28;20510;-76
2023/11/20 03:24:15;;;;;;;2.65;0.60;;;;;;;;;;6257318;28;20048;-77
2023/11/20 03:27:16;;;;;;;2.92;0.40;;;;;;;;;;6257974;28;20060;-78
2023/11/20 03:30:18;;;;;;;5.18;0.80;;;;;;;;;;6252269;28;20118;-78
2023/11/20 03:33:20;;;;;;;0.70;0.40;;;;;;;;;;6264481;28;20571;-76
2023/11/20 03:36:34;;;;;;;2.75;0.52;;;;;;;;;;6217208;28;20040;-77
2023/11/20 03:39:36;;;;;;;;;;;;;;;;;;6238540;28;20044;-77
2023/11/20 03:42:38;;;;;;;2.20;0.40;;;;;;;;;;6256416;28;19924;-77
2023/11/20 03:45:40;;;;;;;0.85;0.38;;;;;;;;;;6243892;28;20048;-78
2023/11/20 03:48:42;;;;;;;1.58;0.60;;;;;;;;;;6252706;28;20041;-76
2023/11/20 03:51:44;;;;;;;4.65;0.60;;;;;;;;;;6251691;28;20124;-78
2023/11/20 03:54:46;;;;;;;2.92;0.50;;;;;;;;;;6240618;28;20131;-77
2023/11/20 03:57:48;;;;;;;1.42;0.47;;;;;;;;;;6240163;28;20036;-77
2023/11/20 04:00:50;;;;;;;1.02;0.30;;;;;;;;;;6230013;28;20121;-78
2023/11/20 04:03:52;;;;;;;2.75;0.47;;;;;;;;;;6243256;28;20426;-77
2023/11/20 04:06:54;;;;;;;1.00;0.45;;;;;;;;;;6252710;28;20040;-77
2023/11/20 04:09:56;;;;;;;2.90;0.60;;;;;;;;;;6258384;28;20045;-77
2023/11/20 04:12:58;;;;;;;3.53;0.43;;;;;;;;;;6237907;28;20049;-77
2023/11/20 04:16:01;;;;;;;0.70;0.30;;;;;;;;;;6264111;28;20053;-76
2023/11/20 04:19:03;;;;;;;0.40;0.20;;;;;;;;;;6236584;28;20055;-77
2023/11/20 04:22:07;;;;;;;1.15;0.32;;;;;;;;;;6240586;28;20510;-78
2023/11/20 04:25:09;;;;;;;;;;;;;;;;;;6244337;28;20044;-77
2023/11/20 04:28:10;;;;;;;2.05;0.30;;;;;;;;;;6246238;28;19971;-75
2023/11/20 04:31:12;;;;;;;3.40;0.40;;;;;;;;;;6234445;28;20636;-77
2023/11/20 04:34:14;;;;;;;2.45;0.25;;;;;;;;;;6240653;28;20159;-77
2023/11/20 04:37:16;;;;;;;0.85;0.30;;;;;;;;;;6254251;28;20124;-76
2023/11/20 04:40:18;;;;;;;1.98;0.73;;;;;;;;;;6246479;28;20075;-77
2023/11/20 04:43:20;;;;;;;0.55;0.30;;;;;;;;;;6260156;28;20543;-77
2023/11/20 04:46:22;;;;;;;2.90;0.50;;;;;;;;;;6257158;28;20040;-77
2023/11/20 04:49:24;;;;;;;0.32;0.30;;;;;;;;;;6256613;28;20048;-78
2023/11/20 04:52:26;;;;;;;2.92;0.20;;;;;;;;;;6244679;28;20135;-76
2023/11/20 04:55:28;;;;;;;1.55;0.30;;;;;;;;;;6241838;28;20763;-76
2023/11/20 04:58:29;;;;;;;2.78;0.32;;;;;;;;;;6256580;28;20060;-78
2023/11/20 05:01:32;;;;;;;1.65;0.32;;;;;;;;;;6250036;28;20041;-77
2023/11/20 05:04:34;;;;;;;1.42;0.50;;;;;;;;;;6237568;28;20059;-77
2023/11/20 05:07:36;;;;;;;2.20;0.50;;;;;;;;;;6248144;28;20040;-77
2023/11/20 05:10:37;;;;;;;2.35;0.63;;;;;;;;;;6261098;28;20041;-77
2023/11/20 05:13:39;;;;;;;1.38;0.40;;;;;;;;;;6245566;28;20503;-78
2023/11/20 05:16:41;;;;;;;3.03;0.52;;;;;;;;;;6253526;28;20037;-77
2023/11/20 05:19:44;;;;;;;1.33;0.40;;;;;;;;;;6255509;28;20064;-77
2023/11/20 05:22:49;;;;;;;2.08;0.50;;;;;;;;;;6243856;28;20033;-77
2023/11/20 05:25:51;;;;;;;4.57;0.47;;;;;;;;;;6239195;28;20051;-76
2023/11/20 05:28:54;;;;;;;1.13;0.30;;;;;;;;;;6234545;28;20040;-77
2023/11/20 05:31:57;;;;;;;1.70;0.30;;;;;;;;;;6238682;28;20136;-77
2023/11/20 05:34:58;;;;;;;0.65;0.30;;;;;;;;;;6238041;28;20556;-77
2023/11/20 05:38:00;;;;;;;0.43;0.35;;;;;;;;;;6239870;28;20059;-76
2023/11/20 05:41:02;;;;;;;1.27;0.20;;;;;;;;;;6236929;28;20052;-76
2023/11/20 05:44:04;;;;;;;0.70;0.30;;;;;;;;;;6244429;28;20045;-78
2023/11/20 05:47:06;;;;;;;1.50;0.43;;;;;;;;;;6247650;28;20049;-79
2023/11/20 05:50:08;;;;;;;2.45;0.73;;;;;;;;;;6234318;28;20113;-76
2023/11/20 05:53:10;;;;;;;1.40;0.40;;;;;;;;;;6253869;28;20048;-76
2023/11/20 05:56:15;;;;;;;1.20;0.47;;;;;;;;;;6243621;28;20056;-76
2023/11/20 05:59:17;;;;;;;2.53;0.40;;;;;;;;;;6245770;28;20041;-76
2023/11/20 06:02:18;;;;;;;0.75;0.40;;;;;;;;;;6255347;28;20545;-77
2023/11/20 06:05:20;;;;;;;2.25;0.68;;;;;;;;;;6241540;28;20578;-77
2023/11/20 06:08:23;;;;;;;0.55;0.40;;;;;;;;;;6261771;28;20041;-78
2023/11/20 06:11:25;;;;;;;2.33;0.40;;;;;;;;;;6245677;28;20055;-78
2023/11/20 06:14:26;;;;;;;2.60;0.50;;;;;;;;;;6245186;28;20045;-77
2023/11/20 06:17:29;;;;;;;1.20;0.28;;;;;;;;;;6241279;28;20052;-77
2023/11/20 06:20:32;;;;;;;0.45;0.30;;;;;;;;;;6235873;28;20045;-77
2023/11/20 06:23:35;;;;;;;1.38;0.40;;;;;;;;;;6256267;28;20097;-76
2023/11/20 06:26:36;;;;;;;0.35;0.30;;;;;;;;;;6240540;28;20052;-76
2023/11/20 06:29:39;;;;;;;2.30;0.38;;;;;;;;;;6249700;28;20094;-76
2023/11/20 06:32:44;;;;;;;0.40;0.30;;;;;;;;;;6241003;28;20072;-77
2023/11/20 06:35:46;;;;;;;2.05;0.40;;;;;;;;;;6234657;28;20051;-77
2023/11/20 06:38:48;;;;;;;1.40;0.35;;;;;;;;;;6234031;28;20064;-78
2023/11/20 06:41:50;;;;;;;1.17;0.30;;;;;;;;;;6247627;28;20051;-77
2023/11/20 06:44:54;;;;;;;0.20;0.20;;;;;;;;;;6237184;28;20040;-77
2023/11/20 06:47:57;;;;;;;1.52;0.40;;;;;;;;;;6237515;28;20106;-77
2023/11/20 06:50:58;;;;;;;6.55;0.63;;;;;;;;;;6255966;28;20545;-77
2023/11/20 06:54:01;;;;;;;1.73;0.60;;;;;;;;;;6241679;28;20049;-77
2023/11/20 06:57:04;;;;;;;1.77;0.50;;;;;;;;;;6242559;28;20052;-77
2023/11/20 07:00:07;;;;;;;1.45;0.40;;;;;;;;;;6252358;28;20067;-77
2023/11/20 07:03:09;;;;;;;1.58;0.40;;;;;;;;;;6258508;28;20056;-77
2023/11/20 07:06:15;;;;;;;0.73;0.40;;;;;;;;;;6238814;28;20551;-74
2023/11/20 07:09:18;;;;;;;3.13;0.43;;;;;;;;;;6244126;28;20465;-76
2023/11/20 07:12:20;;;;;;;1.48;0.60;;;;;;;;;;6250849;28;20052;-77
2023/11/20 07:15:24;;;;;;;2.70;0.60;;;;;;;;;;6255128;28;20059;-75
2023/11/20 07:18:26;;;;;;;5.78;0.70;;;;;;;;;;6249638;28;20052;-76
2023/11/20 07:21:29;;;;;;;1.08;0.45;;;;;;;;;;6248082;28;20049;-76
2023/11/20 07:24:31;;;;;;;5.45;0.57;;;;;;;;;;6255406;28;20044;-77
2023/11/20 07:27:35;;;;;;;2.00;0.68;;;;;;;;;;6257871;28;20043;-77
2023/11/20 07:30:37;;;;;;;4.90;0.60;;;;;;;;;;6257457;28;20083;-77
2023/11/20 07:33:40;;;;;;;3.28;0.82;;;;;;;;;;6238864;28;20048;-77
2023/11/20 07:36:42;;;;;;;3.77;0.80;;;;;;;;;;6232441;28;20041;-78
2023/11/20 07:39:45;;;;;;;2.78;0.55;;;;;;;;;;6239498;28;20062;-77
2023/11/20 07:42:47;;;;;;;4.05;0.65;;;;;;;;;;6250119;28;20567;-76
2023/11/20 07:45:49;;;;;;;4.15;0.70;;;;;;;;;;6249284;28;20056;-77
2023/11/20 07:48:53;;;;;;;6.68;0.95;;;;;;;;;;6232459;28;20045;-77
2023/11/20 07:51:56;;;;;;;3.08;0.60;;;;;;;;;;6213614;28;20048;-77
2023/11/20 07:54:58;;;;;;;;;;;;;;;;;;6228806;28;20400;-77
2023/11/20 07:58:00;;;;;;;1.77;0.80;;;;;;;;;;6243547;28;19927;-77
2023/11/20 08:01:02;;;;;;;5.07;0.90;;;;;;;;;;6224716;28;20151;-77
2023/11/20 08:04:04;;;;;;;3.38;0.60;;;;;;;;;;6234785;28;20056;-77
2023/11/20 08:07:06;;;;;;;3.97;0.68;;;;;;;;;;6245915;28;20426;-76
2023/11/20 08:10:09;;;;;;;3.63;0.85;;;;;;;;;;6242064;28;20053;-77
2023/11/20 08:13:12;;;;;;;2.40;0.70;;;;;;;;;;6257275;28;20067;-76
2023/11/20 08:16:14;;;;;;;2.08;0.52;;;;;;;;;;6238370;28;20464;-77
2023/11/20 08:19:16;;;;;;;3.80;0.70;;;;;;;;;;6256620;28;20048;-77
2023/11/20 08:22:18;;;;;;;4.70;0.70;;;;;;;;;;6238525;28;20060;-78
2023/11/20 08:25:20;;;;;;;4.47;0.73;;;;;;;;;;6239477;28;20036;-76
2023/11/20 08:28:22;;;;;;;1.60;0.80;;;;;;;;;;6236190;28;20049;-78
2023/11/20 08:31:24;;;;;;;2.38;0.47;;;;;;;;;;6241113;28;20502;-78
2023/11/20 08:34:27;;;;;;;4.63;0.90;;;;;;;;;;6250025;28;20372;-77
2023/11/20 08:37:29;;;;;;;5.27;0.60;;;;;;;;;;6263466;28;20048;-76
2023/11/20 08:40:31;;;;;;;3.28;0.88;;;;;;;;;;6256240;28;20508;-78
2023/11/20 08:43:33;;;;;;;3.58;0.70;;;;;;;;;;6244918;28;20041;-78
2023/11/20 08:46:35;;;;;;;6.47;0.60;;;;;;;;;;6255049;28;20187;-78
2023/11/20 08:49:37;;;;;;;1.90;0.60;;;;;;;;;;6255525;28;20037;-78
2023/11/20 08:52:39;;;;;;;4.13;0.60;;;;;;;;;;6237278;28;20047;-77
2023/11/20 08:55:41;;;;;;;3.17;0.80;;;;;;;;;;6243407;28;20052;-78
2023/11/20 08:58:43;;;;;;;4.38;0.50;;;;;;;;;;6253927;28;20098;-78
2023/11/20 09:01:45;;;;;;;5.00;0.70;;;;;;;;;;6241864;28;20186;-78
2023/11/20 09:04:47;;;;;;;3.25;0.88;;;;;;;;;;6245271;28;20152;-79
2023/11/20 09:07:49;;;;;;;3.17;0.45;;;;;;;;;;6242565;28;20044;-78
2023/11/20 09:10:51;;;;;;;2.67;0.70;;;;;;;;;;6239526;28;20048;-77
2023/11/20 09:13:53;;;;;;;2.92;0.63;;;;;;;;;;6235246;28;20040;-77
2023/11/20 09:16:56;;;;;;;2.58;0.50;;;;;;;;;;6243505;28;20047;-76
2023/11/20 09:19:58;;;;;;;2.60;0.80;;;;;;;;;;6258394;28;20075;-76
2023/11/20 09:23:00;;;;;;;2.87;0.50;;;;;;;;;;6245202;28;20049;-78
2023/11/20 09:26:03;;;;;;;3.55;0.75;;;;;;;;;;6254099;28;20503;-78
2023/11/20 09:29:06;;;;;;;4.30;0.70;;;;;;;;;;6247427;28;20118;-78
2023/11/20 09:32:10;;;;;;;5.43;0.70;;;;;;;;;;6252976;28;20645;-78
2023/11/20 09:35:12;;;;;;;7.22;0.73;;;;;;;;;;6257488;28;20416;-79
2023/11/20 09:38:14;;;;;;;3.17;0.77;;;;;;;;;;6277729;28;20400;-78
2023/11/20 09:41:17;;;;;;;3.13;0.50;;;;;;;;;;6258732;28;20134;-77
2023/11/20 09:44:21;;;;;;;6.25;0.90;;;;;;;;;;6251440;28;20526;-77
2023/11/20 09:47:23;;;;;;;3.78;1.00;;;;;;;;;;6251733;28;20070;-80
2023/11/20 09:50:28;;;;;;;3.33;0.88;;;;;;;;;;6244457;28;20183;-77
2023/11/20 09:53:36;;;;;;;4.97;0.80;;;;;;;;;;6243057;28;20041;-78
2023/11/20 09:56:38;;;;;;;3.80;0.98;;;;;;;;;;6244456;28;20414;-79
2023/11/20 09:59:40;;;;;;;5.03;0.80;;;;;;;;;;6218885;28;20057;-79
2023/11/20 10:02:45;;;;;;;2.30;0.50;;;;;;;;;;6246017;28;20045;-77
2023/11/20 10:05:50;;;;;;;2.65;0.70;;;;;;;;;;6272083;28;20048;-77
2023/11/20 10:08:53;;;;;;;5.93;0.88;;;;;;;;;;6245740;28;20044;-79
2023/11/20 10:11:56;;;;;;;4.18;0.85;;;;;;;;;;6261702;28;20044;-78
2023/11/20 10:15:00;;;;;;;3.85;0.80;;;;;;;;;;6237509;28;20079;-77
2023/11/20 10:18:02;;;;;;;3.17;0.70;;;;;;;;;;6239020;28;20746;-77
2023/11/20 10:21:05;;;;;;;6.13;0.88;;;;;;;;;;6244797;28;20107;-77
2023/11/20 10:24:11;;;;;;;3.53;0.65;;;;;;;;;;6237100;28;20049;-77
2023/11/20 10:27:14;;;;;;;2.67;0.60;;;;;;;;;;6226790;28;20053;-78
2023/11/20 10:30:18;;;;;;;5.22;1.23;;;;;;;;;;6243254;28;20041;-79
2023/11/20 10:33:21;;;;;;;1.55;0.50;;;;;;;;;;6219859;28;20049;-77
2023/11/20 10:36:26;;;;;;;5.13;1.02;;;;;;;;;;6251949;28;20041;-78
2023/11/20 10:39:30;;;;;;;2.08;0.70;;;;;;;;;;6245879;28;20069;-79
2023/11/20 10:42:31;;;;;;;1.65;0.40;;;;;;;;;;6229595;28;20052;-76
2023/11/20 10:45:38;;;;;;;1.77;0.60;;;;;;;;;;6244691;28;20050;-79
2023/11/20 10:48:40;;;;;;;2.63;0.65;;;;;;;;;;6245898;28;20044;-78
2023/11/20 10:51:52;;;;;;;2.53;0.60;;;;;;;;;;6260008;28;20503;-78
2023/11/20 10:54:58;;;;;;;4.40;1.05;;;;;;;;;;6243312;28;20055;-77
2023/11/20 10:58:03;;;;;;;2.35;0.85;;;;;;;;;;6239873;28;20506;-76
2023/11/20 11:01:07;;;;;;;5.18;0.63;;;;;;;;;;6241938;28;20048;-77
2023/11/20 11:04:13;;;;;;;5.85;0.50;;;;;;;;;;6240585;28;20690;-77
2023/11/20 11:07:16;;;;;;;3.17;0.60;;;;;;;;;;6246151;28;20041;-77
2023/11/20 11:10:18;;;;;;;;;;;;;;;;;;6232950;28;20047;-77
2023/11/20 11:13:23;;;;;;;2.65;0.60;;;;;;;;;;6256739;28;20011;-77
2023/11/20 11:16:37;;;;;;;2.00;0.60;;;;;;;;;;6245150;28;20033;-79
2023/11/20 11:19:48;;;;;;;2.92;0.65;;;;;;;;;;6239820;28;20065;-79
2023/11/20 11:23:03;;;;;;;2.08;0.57;;;;;;;;;;6240527;28;20127;-78
2023/11/20 11:26:25;;;;;;;1.55;0.43;;;;;;;;;;6243996;28;20071;-79
2023/11/20 11:29:35;;;;;;;5.00;0.70;;;;;;;;;;6244824;28;20037;-77
2023/11/20 11:32:46;;;;;;;3.65;0.60;;;;;;;;;;6256282;28;20562;-77
2023/11/20 11:36:14;;;;;;;2.05;0.60;;;;;;;;;;6238829;28;20048;-78
2023/11/20 11:39:39;;;;;;;2.92;0.75;;;;;;;;;;6251287;28;20123;-78
2023/11/20 11:42:53;;;;;;;1.40;0.50;;;;;;;;;;6271057;28;20040;-79
2023/11/20 11:45:58;;;;;;;4.82;0.93;;;;;;;;;;6240568;28;20052;-79
2023/11/20 11:49:19;;;;;;;1.30;0.45;;;;;;;;;;6259383;28;20048;-79
2023/11/20 11:52:27;;;;;;;2.58;0.40;;;;;;;;;;6242655;28;22544;-79
2023/11/20 11:55:42;;;;;;;1.90;1.05;;;;;;;;;;6242728;28;20175;-78
2023/11/20 11:58:45;;;;;;;1.17;0.50;;;;;;;;;;6246840;28;20055;-79
2023/11/20 12:01:51;;;;;;;1.80;0.40;;;;;;;;;;6256924;28;20059;-78
2023/11/20 12:04:56;;;;;;;0.88;0.40;;;;;;;;;;6243299;28;20051;-79
2023/11/20 12:08:04;;;;;;;1.52;0.65;;;;;;;;;;6268665;28;20174;-80
2023/11/20 12:11:06;;;;;;;4.20;0.70;;;;;;;;;;6262292;28;20052;-78
2023/11/20 12:14:12;;;;;;;1.23;0.50;;;;;;;;;;6258689;28;20051;-78
2023/11/20 12:17:14;;;;;;;0.73;0.40;;;;;;;;;;6246714;28;20045;-78
2023/11/20 12:20:16;;;;;;;0.98;0.38;;;;;;;;;;6260327;28;20054;-78
2023/11/20 12:23:31;;;;;;;2.80;0.60;;;;;;;;;;6254234;28;20049;-79
2023/11/20 12:26:33;;;;;;;1.20;0.55;;;;;;;;;;6240021;28;20045;-78
2023/11/20 12:29:35;;;;;;;1.30;0.40;;;;;;;;;;6239081;28;20048;-79
2023/11/20 12:32:36;;;;;;;0.60;0.40;;;;;;;;;;6260165;28;20763;-79
2023/11/20 12:35:39;;;;;;;2.92;0.70;;;;;;;;;;6247017;28;20048;-78
2023/11/20 12:38:47;;;;;;;1.05;0.65;;;;;;;;;;6244718;28;20052;-79
2023/11/20 12:41:49;;;;;;;2.70;0.60;;;;;;;;;;6257281;28;20108;-79
2023/11/20 12:44:51;;;;;;;2.05;0.60;;;;;;;;;;6240575;28;20048;-78
2023/11/20 12:47:53;;;;;;;0.55;0.45;;;;;;;;;;6261301;28;20036;-78
2023/11/20 12:50:55;;;;;;;0.50;0.35;;;;;;;;;;6247424;28;20047;-79
2023/11/20 12:53:57;;;;;;;4.28;0.40;;;;;;;;;;6246437;28;20062;-77
2023/11/20 12:57:01;;;;;;;0.52;0.40;;;;;;;;;;6263550;28;20044;-79
2023/11/20 13:00:10;;;;;;;3.58;0.38;;;;;;;;;;6249105;28;20670;-78
2023/11/20 13:03:17;;;;;;;0.93;0.20;;;;;;;;;;6239949;28;20262;-78
2023/11/20 13:06:20;;;;;;;2.22;0.32;;;;;;;;;;6263950;28;20051;-79
2023/11/20 13:09:25;;;;;;;1.55;0.20;;;;;;;;;;6258737;28;20071;-79
2023/11/20 13:12:28;;;;;;;0.68;0.40;;;;;;;;;;6247361;28;20052;-77
2023/11/20 13:15:31;;;;;;;0.35;0.28;;;;;;;;;;6251600;28;20052;-79
2023/11/20 13:18:46;;;;;;;0.75;0.40;;;;;;;;;;6248641;28;20147;-78
2023/11/20 13:21:49;;;;;;;1.58;0.80;;;;;;;;;;6246671;28;20066;-79
2023/11/20 13:24:51;;;;;;;;;;;;;;;;;;6244236;28;20174;-79
2023/11/20 13:27:57;;;;;;;0.73;0.40;;;;;;;;;;6244838;28;19969;-77
2023/11/20 13:31:02;;;;;;;1.85;0.40;;;;;;;;;;6246458;28;20116;-79
2023/11/20 13:34:04;;;;;;;1.90;0.30;;;;;;;;;;6237533;28;20156;-77
2023/11/20 13:37:09;;;;;;;1.27;0.50;;;;;;;;;;6247124;28;20086;-79
2023/11/20 13:40:11;;;;;;;0.40;0.30;;;;;;;;;;6241839;28;20076;-78
2023/11/20 13:43:15;;;;;;;1.33;0.50;;;;;;;;;;6239459;28;20681;-77
2023/11/20 13:46:16;;;;;;;0.90;0.40;;;;;;;;;;6239821;28;20141;-78
2023/11/20 13:49:19;;;;;;;2.08;0.57;;;;;;;;;;6241949;28;20071;-77
2023/11/20 13:52:21;;;;;;;1.20;0.40;;;;;;;;;;6263162;28;20518;-77
2023/11/20 13:55:23;;;;;;;1.05;0.40;;;;;;;;;;6235642;28;20045;-77
2023/11/20 13:58:26;;;;;;;1.17;0.38;;;;;;;;;;6240465;28;20055;-78
2023/11/20 14:01:28;;;;;;;;;;;;;;;;;;6245635;28;20048;-77
2023/11/20 14:04:31;;;;;;;0.60;0.50;;;;;;;;;;6244523;28;19924;-76
2023/11/20 14:07:32;;;;;;;2.22;0.50;;;;;;;;;;6261329;28;20041;-77
2023/11/20 14:10:34;;;;;;;1.85;0.30;;;;;;;;;;6239205;28;20082;-77
2023/11/20 14:13:38;;;;;;;0.40;0.40;;;;;;;;;;6245368;28;20426;-77
2023/11/20 14:16:40;;;;;;;2.00;0.50;;;;;;;;;;6262336;28;20051;-77
2023/11/20 14:19:42;;;;;;;0.60;0.30;;;;;;;;;;6254425;28;20104;-75
2023/11/20 14:22:44;;;;;;;0.40;0.30;;;;;;;;;;6259535;28;20044;-76
2023/11/20 14:25:46;;;;;;;1.70;0.98;;;;;;;;;;6241285;28;20045;-77
2023/11/20 14:29:08;;;;;;;2.80;0.40;;;;;;;;;;6242624;28;20048;-76
2023/11/20 14:32:12;;;;;;;2.33;0.30;;;;;;;;;;6251117;28;20529;-77
2023/11/20 14:35:21;;;;;;;1.45;0.52;;;;;;;;;;6257269;28;20049;-77
2023/11/20 14:38:23;;;;;;;1.48;0.60;;;;;;;;;;6263543;28;20053;-78
2023/11/20 14:41:26;;;;;;;0.70;0.40;;;;;;;;;;6240323;28;20037;-76
2023/11/20 14:44:28;;;;;;;;;;;;;;;;;;6238459;28;20048;-77
2023/11/20 14:47:30;;;;;;;3.58;0.65;;;;;;;;;;6240602;28;19920;-77
2023/11/20 14:50:32;;;;;;;2.75;0.63;;;;;;;;;;6240598;28;20055;-77
2023/11/20 14:53:34;;;;;;;4.22;0.55;;;;;;;;;;6251684;28;20556;-79
2023/11/20 14:56:39;;;;;;;1.77;0.70;;;;;;;;;;6259186;28;20170;-77
2023/11/20 14:59:40;;;;;;;4.03;0.80;;;;;;;;;;6251760;28;20076;-76
2023/11/20 15:02:56;;;;;;;2.92;0.70;;;;;;;;;;6242388;28;20044;-78
2023/11/20 15:05:58;;;;;;;1.27;0.63;;;;;;;;;;6245648;28;20052;-78
2023/11/20 15:09:00;;;;;;;2.80;0.98;;;;;;;;;;6261316;28;20630;-77
2023/11/20 15:12:04;;;;;;;2.88;0.60;;;;;;;;;;6251186;28;20036;-77
2023/11/20 15:15:10;;;;;;;2.20;0.52;;;;;;;;;;6256856;28;20052;-77
2023/11/20 15:18:11;;;;;;;1.23;0.40;;;;;;;;;;6242139;28;20040;-77
2023/11/20 15:21:13;;;;;;;4.68;0.50;;;;;;;;;;6239072;28;20049;-78
2023/11/20 15:24:15;;;;;;;3.67;1.52;;;;;;;;;;6235290;28;20048;-77
2023/11/20 15:27:18;;;;;;;4.05;0.80;;;;;;;;;;6241803;28;20045;-78
2023/11/20 15:30:19;;;;;;;0.98;0.60;;;;;;;;;;6233854;28;20507;-77
2023/11/20 15:33:21;;;;;;;1.48;0.70;;;;;;;;;;6237896;28;20045;-78
2023/11/20 15:36:23;;;;;;;2.20;0.52;;;;;;;;;;6262198;28;20103;-78
2023/11/20 15:39:25;;;;;;;1.13;0.80;;;;;;;;;;6233913;28;20045;-78
2023/11/20 15:42:27;;;;;;;1.73;0.90;;;;;;;;;;6233048;28;20049;-77
2023/11/20 15:45:30;;;;;;;2.22;0.90;;;;;;;;;;6242932;28;20094;-79
2023/11/20 15:48:32;;;;;;;1.52;0.80;;;;;;;;;;6263256;28;20563;-79
2023/11/20 15:51:33;;;;;;;4.68;0.80;;;;;;;;;;6243785;28;20131;-77
2023/11/20 15:54:38;;;;;;;2.45;0.70;;;;;;;;;;6244966;28;20049;-78
2023/11/20 15:57:39;;;;;;;2.40;0.60;;;;;;;;;;6262098;28;20048;-76
2023/11/20 16:00:41;;;;;;;0.73;0.60;;;;;;;;;;6253607;28;20048;-75
2023/11/20 16:03:43;;;;;;;4.32;1.63;;;;;;;;;;6260167;28;20155;-77
2023/11/20 16:06:47;;;;;;;8.57;3.80;;;;;;;;;;6268522;28;20044;-75
2023/11/20 16:09:49;;;;;;;9.32;4.00;;;;;;;;;;6253778;28;20049;-75
2023/11/20 16:12:51;;;;;;;10.82;6.22;;;;;;;;;;6268447;28;20048;-76
2023/11/20 16:15:53;;;;;;;11.30;6.78;;;;;;;;;;6256627;28;20053;-75
2023/11/20 16:18:55;;;;;;;10.77;5.47;;;;;;;;;;6244283;28;20041;-76
2023/11/20 16:21:57;;;;;;;16.70;7.00;;;;;;;;;;6254465;28;20044;-77
2023/11/20 16:24:59;;;;;;;8.45;5.03;;;;;;;;;;6268409;28;20044;-78
2023/11/20 16:28:01;;;;;;;9.85;4.85;;;;;;;;;;6251932;28;20460;-77
2023/11/20 16:31:03;;;;;;;18.90;12.02;;;;;;;;;;6255146;28;20048;-78
2023/11/20 16:34:09;;;;;;;14.17;6.50;;;;;;;;;;6268653;28;20512;-76
2023/11/20 16:37:17;;;;;;;8.73;5.28;;;;;;;;;;6252276;28;20462;-77
2023/11/20 16:40:21;;;;;;;19.67;9.73;;;;;;;;;;6243583;28;20538;-76
2023/11/20 16:43:22;;;;;;;13.25;6.43;;;;;;;;;;6269591;28;20372;-78
2023/11/20 16:46:25;;;;;;;21.20;10.57;;;;;;;;;;6251145;28;20048;-77
2023/11/20 16:49:32;;;;;;;48.17;21.25;;;;;;;;;;6246381;28;20563;-79
2023/11/20 16:52:35;;;;;;;26.08;13.98;;;;;;;;;;6246977;28;20049;-78
2023/11/20 16:55:40;;;;;;;15.57;9.00;;;;;;;;;;6243838;28;20088;-77
2023/11/20 16:58:43;;;;;;;28.33;15.98;;;;;;;;;;6246128;28;20044;-76
2023/11/20 17:01:45;;;;;;;;;;;;;;;;;;6258860;28;20048;-79
2023/11/20 17:04:48;;;;;;;16.38;10.25;;;;;;;;;;6248304;28;19924;-77
2023/11/20 17:07:51;;;;;;;22.97;15.47;;;;;;;;;;6256297;28;20040;-75
2023/11/20 17:10:53;;;;;;;29.75;17.92;;;;;;;;;;6247263;28;20451;-78
2023/11/20 17:13:55;;;;;;;33.15;21.10;;;;;;;;;;6261187;28;20116;-78
2023/11/20 17:16:57;;;;;;;31.90;17.95;;;;;;;;;;6260661;28;20041;-77
2023/11/20 17:20:00;;;;;;;21.35;14.20;;;;;;;;;;6262952;28;20051;-78
2023/11/20 17:23:02;;;;;;;37.10;21.52;;;;;;;;;;6248232;28;20049;-78
2023/11/20 17:26:04;;;;;;;30.52;20.90;;;;;;;;;;6260930;28;20053;-78
2023/11/20 17:29:06;;;;;;;31.90;18.88;;;;;;;;;;6263695;28;20155;-78
2023/11/20 17:32:09;;;;;;;29.27;19.73;;;;;;;;;;6235110;28;20049;-79
2023/11/20 17:35:13;;;;;;;;;;;;;;;;;;6250733;28;20711;-75
2023/11/20 17:38:14;;;;;;;6.82;4.45;;;;;;;;;;6260316;28;19925;-79
2023/11/20 17:41:16;;;;;;;7.40;3.17;;;;;;;;;;6242873;28;20074;-78
2023/11/20 17:44:18;;;;;;;4.72;1.60;;;;;;;;;;6241616;28;20055;-77
2023/11/20 17:47:20;;;;;;;2.75;1.35;;;;;;;;;;6276912;28;20058;-75
2023/11/20 17:50:22;;;;;;;3.40;1.47;;;;;;;;;;6266910;28;20036;-76
2023/11/20 17:53:24;;;;;;;7.65;1.98;;;;;;;;;;6248865;28;20050;-77
2023/11/20 17:56:26;;;;;;;6.70;1.92;;;;;;;;;;6264601;28;20582;-77
2023/11/20 17:59:28;;;;;;;2.80;1.38;;;;;;;;;;6269870;28;20048;-76
2023/11/20 18:02:30;;;;;;;2.10;1.15;;;;;;;;;;6249366;28;20060;-78
2023/11/20 18:05:36;;;;;;;5.97;2.33;;;;;;;;;;6262331;28;20108;-76
2023/11/20 18:08:39;;;;;;;2.67;1.30;;;;;;;;;;6251580;28;20044;-77
2023/11/20 18:11:41;;;;;;;2.95;1.58;;;;;;;;;;6254417;28;20340;-75
2023/11/20 18:14:43;;;;;;;6.07;1.88;;;;;;;;;;6278557;28;20048;-77
2023/11/20 18:17:45;;;;;;;9.45;5.60;;;;;;;;;;6264373;28;20055;-76
2023/11/20 18:20:47;;;;;;;5.18;3.50;;;;;;;;;;6263050;28;20049;-76